createdAt,value
2018-06-27T00:00:03.523Z,97610.28
2018-06-27T00:01:39.489Z,97615.00
2018-06-27T00:03:18.684Z,97613.03
2018-06-27T00:04:54.550Z,97612.64
2018-06-27T00:06:30.381Z,97611.37
2018-06-27T00:08:08.447Z,97608.36
2018-06-27T00:09:43.893Z,97610.77
2018-06-27T00:11:20.399Z,97609.66
2018-06-27T00:12:56.744Z,97604.52
2018-06-27T00:14:32.032Z,97604.77
2018-06-27T00:16:08.279Z,97603.22
2018-06-27T00:17:44.322Z,97600.40
2018-06-27T00:19:20.379Z,97599.72
2018-06-27T00:20:55.547Z,97598.35
2018-06-27T00:22:31.227Z,97600.75
2018-06-27T00:24:06.543Z,97603.58
2018-06-27T00:25:41.893Z,97598.47
2018-06-27T00:27:17.181Z,97607.30
2018-06-27T00:28:52.528Z,97603.45
2018-06-27T00:30:27.988Z,97601.34
2018-06-27T00:32:03.631Z,97605.84
2018-06-27T00:33:39.589Z,97603.81
2018-06-27T00:35:14.765Z,97608.87
2018-06-27T00:36:50.340Z,97605.38
2018-06-27T00:38:27.652Z,97605.98
2018-06-27T00:40:03.236Z,97606.41
2018-06-27T00:41:40.214Z,97612.91
2018-06-27T00:43:17.275Z,97610.37
2018-06-27T00:44:52.332Z,97608.89
2018-06-27T00:46:27.943Z,97605.14
2018-06-27T00:48:03.851Z,97610.19
2018-06-27T00:49:39.281Z,97606.36
2018-06-27T00:51:14.528Z,97610.03
2018-06-27T00:52:50.466Z,97604.82
2018-06-27T00:54:26.058Z,97606.52
2018-06-27T00:56:01.864Z,97609.79
2018-06-27T00:57:36.969Z,97607.14
2018-06-27T00:59:12.808Z,97604.48
2018-06-27T01:00:51.282Z,97606.38
2018-06-27T01:02:26.543Z,97607.69
2018-06-27T01:04:02.171Z,97611.62
2018-06-27T01:05:38.285Z,97609.23
2018-06-27T01:07:14.220Z,97605.03
2018-06-27T01:08:49.393Z,97612.22
2018-06-27T01:10:24.662Z,97610.75
2018-06-27T01:12:01.098Z,97608.27
2018-06-27T01:13:36.385Z,97606.13
2018-06-27T01:15:14.089Z,97606.20
2018-06-27T01:16:49.186Z,97604.05
2018-06-27T01:18:24.941Z,97607.09
2018-06-27T01:20:00.540Z,97613.08
2018-06-27T01:21:35.778Z,97607.97
2018-06-27T01:23:12.841Z,97609.47
2018-06-27T01:24:52.506Z,97607.69
2018-06-27T01:26:29.191Z,97607.86
2018-06-27T01:28:06.558Z,97607.51
2018-06-27T01:29:42.622Z,97608.28
2018-06-27T01:31:18.171Z,97613.75
2018-06-27T01:32:57.265Z,97612.91
2018-06-27T01:34:32.439Z,97613.98
2018-06-27T01:36:09.254Z,97617.06
2018-06-27T01:37:45.687Z,97615.64
2018-06-27T01:39:21.458Z,97615.69
2018-06-27T01:40:58.375Z,97614.75
2018-06-27T01:42:35.259Z,97613.44
2018-06-27T01:44:11.680Z,97617.70
2018-06-27T01:45:48.439Z,97620.09
2018-06-27T01:47:23.459Z,97627.27
2018-06-27T01:48:59.120Z,97627.62
2018-06-27T01:50:35.086Z,97626.83
2018-06-27T01:52:10.681Z,97627.31
2018-06-27T01:53:47.140Z,97628.08
2018-06-27T01:55:23.242Z,97633.25
2018-06-27T01:57:03.547Z,97631.82
2018-06-27T01:58:39.507Z,97627.01
2018-06-27T02:00:19.273Z,97628.79
2018-06-27T02:01:56.335Z,97630.98
2018-06-27T02:03:31.597Z,97632.63
2018-06-27T02:05:09.869Z,97631.08
2018-06-27T02:06:47.711Z,97632.14
2018-06-27T02:08:23.606Z,97634.52
2018-06-27T02:09:59.555Z,97628.52
2018-06-27T02:11:35.203Z,97633.39
2018-06-27T02:13:10.547Z,97630.78
2018-06-27T02:14:48.282Z,97632.09
2018-06-27T02:16:23.967Z,97637.19
2018-06-27T02:18:00.403Z,97636.30
2018-06-27T02:19:36.853Z,97641.31
2018-06-27T02:21:12.253Z,97642.38
2018-06-27T02:22:49.578Z,97640.38
2018-06-27T02:24:28.748Z,97638.30
2018-06-27T02:26:04.780Z,97639.84
2018-06-27T02:27:40.908Z,97643.16
2018-06-27T02:29:16.941Z,97641.52
2018-06-27T02:30:53.594Z,97642.20
2018-06-27T02:32:28.768Z,97640.66
2018-06-27T02:34:04.958Z,97643.65
2018-06-27T02:35:40.457Z,97637.38
2018-06-27T02:37:16.676Z,97640.52
2018-06-27T02:38:51.849Z,97640.96
2018-06-27T02:40:27.034Z,97640.57
2018-06-27T02:42:01.997Z,97639.14
2018-06-27T02:43:37.241Z,97636.08
2018-06-27T02:45:14.791Z,97629.53
2018-06-27T02:46:50.274Z,97625.52
2018-06-27T02:48:25.469Z,97627.89
2018-06-27T02:50:00.463Z,97633.46
2018-06-27T02:51:35.489Z,97634.47
2018-06-27T02:53:11.838Z,97634.89
2018-06-27T02:54:48.194Z,97643.06
2018-06-27T02:56:24.274Z,97637.66
2018-06-27T02:57:59.325Z,97635.88
2018-06-27T02:59:34.689Z,97648.23
2018-06-27T03:01:10.648Z,97645.74
2018-06-27T03:02:48.336Z,97645.27
2018-06-27T03:04:23.341Z,97646.16
2018-06-27T03:05:59.346Z,97645.63
2018-06-27T03:07:35.580Z,97646.13
2018-06-27T03:09:12.359Z,97642.34
2018-06-27T03:10:48.384Z,97642.75
2018-06-27T03:12:23.829Z,97638.75
2018-06-27T03:13:59.769Z,97644.88
2018-06-27T03:15:35.218Z,97641.24
2018-06-27T03:17:10.397Z,97641.78
2018-06-27T03:18:55.988Z,97645.29
2018-06-27T03:20:31.056Z,97648.27
2018-06-27T03:22:07.061Z,97642.00
2018-06-27T03:23:43.100Z,97645.83
2018-06-27T03:25:22.096Z,97649.99
2018-06-27T03:26:57.167Z,97648.69
2018-06-27T03:28:33.535Z,97647.32
2018-06-27T03:30:09.991Z,97646.87
2018-06-27T03:31:46.606Z,97649.07
2018-06-27T03:33:22.375Z,97643.13
2018-06-27T03:34:57.351Z,97647.05
2018-06-27T03:36:32.428Z,97648.86
2018-06-27T03:38:09.288Z,97644.58
2018-06-27T03:39:44.173Z,97645.95
2018-06-27T03:41:22.512Z,97641.17
2018-06-27T03:42:59.695Z,97641.29
2018-06-27T03:44:36.895Z,97644.26
2018-06-27T03:46:13.411Z,97636.24
2018-06-27T03:47:49.121Z,97642.95
2018-06-27T03:49:26.092Z,97642.00
2018-06-27T03:51:01.120Z,97639.45
2018-06-27T03:52:39.987Z,97645.69
2018-06-27T03:54:17.143Z,97642.27
2018-06-27T03:55:53.786Z,97645.00
2018-06-27T03:57:28.604Z,97651.42
2018-06-27T03:59:03.597Z,97650.64
2018-06-27T04:00:39.028Z,97645.15
2018-06-27T04:02:14.999Z,97649.94
2018-06-27T04:03:51.645Z,97647.80
2018-06-27T04:05:27.887Z,97654.03
2018-06-27T04:07:04.357Z,97652.22
2018-06-27T04:08:39.962Z,97648.12
2018-06-27T04:10:15.107Z,97644.97
2018-06-27T04:11:51.942Z,97652.52
2018-06-27T04:13:27.010Z,97650.81
2018-06-27T04:15:04.462Z,97649.62
2018-06-27T04:16:44.714Z,97655.14
2018-06-27T04:18:19.640Z,97650.95
2018-06-27T04:19:55.863Z,97649.52
2018-06-27T04:21:31.595Z,97641.85
2018-06-27T04:23:07.923Z,97645.47
2018-06-27T04:24:43.499Z,97645.73
2018-06-27T04:26:19.770Z,97645.48
2018-06-27T04:27:56.594Z,97647.97
2018-06-27T04:29:33.112Z,97648.58
2018-06-27T04:31:10.021Z,97646.72
2018-06-27T04:32:46.600Z,97654.69
2018-06-27T04:34:22.306Z,97654.80
2018-06-27T04:35:59.196Z,97651.78
2018-06-27T04:37:35.011Z,97660.37
2018-06-27T04:39:12.501Z,97653.44
2018-06-27T04:40:48.027Z,97653.48
2018-06-27T04:42:23.663Z,97653.31
2018-06-27T04:43:59.940Z,97656.81
2018-06-27T04:45:35.161Z,97648.34
2018-06-27T04:47:11.307Z,97654.07
2018-06-27T04:48:50.319Z,97649.35
2018-06-27T04:50:25.506Z,97652.08
2018-06-27T04:52:01.217Z,97654.19
2018-06-27T04:53:36.443Z,97651.84
2018-06-27T04:55:12.179Z,97656.51
2018-06-27T04:56:47.316Z,97657.58
2018-06-27T04:58:24.556Z,97653.28
2018-06-27T04:59:59.826Z,97657.59
2018-06-27T05:01:36.250Z,97658.38
2018-06-27T05:03:14.030Z,97655.22
2018-06-27T05:04:49.490Z,97652.22
2018-06-27T05:06:24.687Z,97655.80
2018-06-27T05:07:59.597Z,97654.68
2018-06-27T05:09:35.500Z,97651.64
2018-06-27T05:11:10.957Z,97651.80
2018-06-27T05:12:49.773Z,97647.34
2018-06-27T05:14:25.695Z,97645.70
2018-06-27T05:16:02.407Z,97641.58
2018-06-27T05:17:37.284Z,97641.94
2018-06-27T05:19:13.409Z,97644.55
2018-06-27T05:20:50.031Z,97638.27
2018-06-27T05:22:28.761Z,97640.86
2018-06-27T05:24:06.111Z,97640.54
2018-06-27T05:25:42.866Z,97637.09
2018-06-27T05:27:17.955Z,97645.44
2018-06-27T05:29:03.993Z,97639.34
2018-06-27T05:30:40.054Z,97641.22
2018-06-27T05:32:16.601Z,97642.69
2018-06-27T05:33:54.365Z,97642.30
2018-06-27T05:35:31.527Z,97647.63
2018-06-27T05:37:09.251Z,97645.69
2018-06-27T05:38:44.460Z,97642.80
2018-06-27T05:40:19.832Z,97650.41
2018-06-27T05:41:56.457Z,97648.88
2018-06-27T05:43:31.493Z,97648.45
2018-06-27T05:45:08.815Z,97646.84
2018-06-27T05:46:45.113Z,97645.72
2018-06-27T05:48:20.059Z,97644.08
2018-06-27T05:49:56.684Z,97639.73
2018-06-27T05:51:33.684Z,97648.06
2018-06-27T05:53:11.212Z,97639.72
2018-06-27T05:54:47.999Z,97636.64
2018-06-27T05:56:23.497Z,97646.41
2018-06-27T05:58:01.079Z,97636.22
2018-06-27T05:59:37.033Z,97641.59
2018-06-27T06:01:13.406Z,97642.75
2018-06-27T06:02:50.753Z,97643.84
2018-06-27T06:04:27.681Z,97638.28
2018-06-27T06:06:02.846Z,97643.00
2018-06-27T06:07:38.446Z,97640.59
2018-06-27T06:09:16.037Z,97645.39
2018-06-27T06:10:52.339Z,97642.89
2018-06-27T06:12:28.152Z,97648.05
2018-06-27T06:14:03.750Z,97654.61
2018-06-27T06:15:39.160Z,97648.58
2018-06-27T06:17:14.727Z,97651.99
2018-06-27T06:18:50.789Z,97644.03
2018-06-27T06:20:27.741Z,97646.09
2018-06-27T06:22:03.801Z,97644.95
2018-06-27T06:23:39.599Z,97649.27
2018-06-27T06:25:15.547Z,97650.80
2018-06-27T06:26:51.176Z,97654.11
2018-06-27T06:28:26.528Z,97648.77
2018-06-27T06:30:04.892Z,97655.50
2018-06-27T06:31:40.882Z,97647.58
2018-06-27T06:33:16.505Z,97651.72
2018-06-27T06:34:52.074Z,97651.77
2018-06-27T06:36:27.142Z,97652.50
2018-06-27T06:38:03.089Z,97651.47
2018-06-27T06:39:38.060Z,97655.88
2018-06-27T06:41:13.683Z,97655.27
2018-06-27T06:42:49.115Z,97653.82
2018-06-27T06:44:24.740Z,97655.02
2018-06-27T06:45:59.908Z,97648.78
2018-06-27T06:47:34.986Z,97652.33
2018-06-27T06:49:10.962Z,97647.84
2018-06-27T06:50:47.922Z,97644.57
2018-06-27T06:52:23.302Z,97639.70
2018-06-27T06:53:58.382Z,97647.10
2018-06-27T06:55:34.983Z,97649.92
2018-06-27T06:57:10.515Z,97644.95
2018-06-27T06:58:46.686Z,97654.61
2018-06-27T07:00:22.625Z,97648.44
2018-06-27T07:01:57.891Z,97644.63
2018-06-27T07:03:33.304Z,97654.66
2018-06-27T07:05:08.822Z,97652.64
2018-06-27T07:06:44.411Z,97650.74
2018-06-27T07:08:20.018Z,97654.80
2018-06-27T07:09:57.304Z,97660.80
2018-06-27T07:11:33.339Z,97656.16
2018-06-27T07:13:09.845Z,97653.95
2018-06-27T07:14:45.681Z,97651.58
2018-06-27T07:16:21.585Z,97653.90
2018-06-27T07:17:56.798Z,97657.84
2018-06-27T07:19:33.018Z,97655.95
2018-06-27T07:21:12.031Z,97651.85
2018-06-27T07:22:48.893Z,97650.83
2018-06-27T07:24:24.448Z,97646.48
2018-06-27T07:26:00.162Z,97648.69
2018-06-27T07:27:35.414Z,97646.50
2018-06-27T07:29:10.864Z,97643.66
2018-06-27T07:30:45.896Z,97645.41
2018-06-27T07:32:21.147Z,97645.30
2018-06-27T07:33:56.645Z,97644.09
2018-06-27T07:35:33.294Z,97646.66
2018-06-27T07:37:08.906Z,97650.61
2018-06-27T07:38:44.856Z,97651.75
2018-06-27T07:40:20.669Z,97650.31
2018-06-27T07:41:55.858Z,97652.93
2018-06-27T07:43:31.325Z,97651.42
2018-06-27T07:45:07.829Z,97659.41
2018-06-27T07:46:43.472Z,97655.51
2018-06-27T07:48:19.038Z,97656.46
2018-06-27T07:49:55.123Z,97663.06
2018-06-27T07:51:30.861Z,97662.53
2018-06-27T07:53:11.227Z,97663.88
2018-06-27T07:54:48.625Z,97659.75
2018-06-27T07:56:25.447Z,97663.95
2018-06-27T07:58:01.543Z,97661.06
2018-06-27T07:59:36.793Z,97661.36
2018-06-27T08:01:12.788Z,97661.19
2018-06-27T08:02:47.965Z,97664.73
2018-06-27T08:04:24.012Z,97665.90
2018-06-27T08:06:03.104Z,97658.60
2018-06-27T08:07:38.651Z,97659.63
2018-06-27T08:09:17.498Z,97664.14
2018-06-27T08:10:53.529Z,97662.60
2018-06-27T08:12:29.056Z,97665.05
2018-06-27T08:14:05.475Z,97659.73
2018-06-27T08:15:41.979Z,97659.82
2018-06-27T08:17:19.513Z,97665.56
2018-06-27T08:19:03.506Z,97664.67
2018-06-27T08:20:39.742Z,97662.69
2018-06-27T08:22:23.665Z,97660.66
2018-06-27T08:24:01.530Z,97658.53
2018-06-27T08:25:36.926Z,97656.14
2018-06-27T08:27:12.635Z,97661.30
2018-06-27T08:28:48.833Z,97659.38
2018-06-27T08:30:25.432Z,97656.38
2018-06-27T08:32:00.682Z,97655.27
2018-06-27T08:33:37.581Z,97649.66
2018-06-27T08:35:15.192Z,97654.13
2018-06-27T08:36:50.789Z,97651.98
2018-06-27T08:40:08.608Z,97653.27
2018-06-27T08:41:44.692Z,97648.25
2018-06-27T08:43:20.905Z,97651.36
2018-06-27T08:44:55.939Z,97646.16
2018-06-27T08:46:35.337Z,97654.89
2018-06-27T08:48:12.478Z,97646.48
2018-06-27T08:49:49.749Z,97650.30
2018-06-27T08:51:24.767Z,97647.23
2018-06-27T08:53:00.124Z,97642.05
2018-06-27T08:54:39.670Z,97644.69
2018-06-27T08:56:15.691Z,97639.94
2018-06-27T08:57:53.172Z,97645.92
2018-06-27T08:59:29.206Z,97649.06
2018-06-27T09:01:06.232Z,97644.26
2018-06-27T09:02:45.903Z,97647.10
2018-06-27T09:04:21.631Z,97647.45
2018-06-27T09:06:01.912Z,97647.90
2018-06-27T09:07:38.636Z,97647.26
2018-06-27T09:09:14.262Z,97648.23
2018-06-27T09:10:50.402Z,97642.38
2018-06-27T09:12:26.068Z,97647.55
2018-06-27T09:14:02.197Z,97635.65
2018-06-27T09:15:37.317Z,97635.65
2018-06-27T09:17:12.788Z,97641.70
2018-06-27T09:18:50.089Z,97637.64
2018-06-27T09:20:27.396Z,97636.84
2018-06-27T09:22:03.127Z,97629.45
2018-06-27T09:23:39.859Z,97635.94
2018-06-27T09:25:14.974Z,97641.78
2018-06-27T09:26:51.911Z,97637.17
2018-06-27T09:28:29.405Z,97645.99
2018-06-27T09:30:06.847Z,97648.68
2018-06-27T09:31:43.162Z,97649.58
2018-06-27T09:33:18.690Z,97651.63
2018-06-27T09:34:55.922Z,97650.86
2018-06-27T09:36:34.008Z,97648.33
2018-06-27T09:38:10.819Z,97647.50
2018-06-27T09:39:46.076Z,97646.73
2018-06-27T09:41:22.630Z,97640.06
2018-06-27T09:43:01.725Z,97642.69
2018-06-27T09:44:43.140Z,97646.11
2018-06-27T09:46:18.070Z,97639.31
2018-06-27T09:47:53.899Z,97638.19
2018-06-27T09:49:29.222Z,97637.75
2018-06-27T09:51:04.953Z,97649.42
2018-06-27T09:52:42.322Z,97644.72
2018-06-27T09:54:17.861Z,97644.84
2018-06-27T09:55:53.773Z,97637.31
2018-06-27T09:57:28.978Z,97640.91
2018-06-27T09:59:04.435Z,97638.15
2018-06-27T10:00:41.707Z,97623.03
2018-06-27T10:02:16.700Z,97638.80
2018-06-27T10:03:57.848Z,97624.17
2018-06-27T10:05:33.966Z,97614.66
2018-06-27T10:07:11.427Z,97622.81
2018-06-27T10:08:46.336Z,97614.66
2018-06-27T10:11:25.498Z,97621.95
2018-06-27T10:13:02.096Z,97621.81
2018-06-27T10:14:38.661Z,97615.63
2018-06-27T10:16:14.685Z,97616.17
2018-06-27T10:20:04.320Z,97615.32
2018-06-27T10:21:41.181Z,97613.88
2018-06-27T10:23:16.534Z,97612.89
2018-06-27T10:25:00.673Z,97615.69
2018-06-27T10:26:40.343Z,97607.66
2018-06-27T10:28:25.105Z,97609.27
2018-06-27T10:30:10.097Z,97600.23
2018-06-27T10:31:49.909Z,97599.86
2018-06-27T10:33:41.179Z,97595.70
2018-06-27T10:35:22.088Z,97603.55
2018-06-27T10:37:02.689Z,97598.13
2018-06-27T10:38:39.522Z,97590.91
2018-06-27T10:40:16.755Z,97596.66
2018-06-27T10:41:53.488Z,97592.19
2018-06-27T10:43:32.236Z,97596.83
2018-06-27T10:45:18.033Z,97588.42
2018-06-27T10:46:54.041Z,97590.02
2018-06-27T10:48:30.708Z,97587.12
2018-06-27T10:50:09.377Z,97580.23
2018-06-27T10:51:48.271Z,97592.91
2018-06-27T10:53:25.258Z,97578.91
2018-06-27T10:55:01.012Z,97571.69
2018-06-27T10:56:37.457Z,97576.97
2018-06-27T10:58:16.929Z,97569.45
2018-06-27T10:59:54.378Z,97572.33
2018-06-27T11:01:30.525Z,97570.78
2018-06-27T11:03:05.636Z,97580.04
2018-06-27T11:04:40.823Z,97572.00
2018-06-27T11:06:17.398Z,97568.98
2018-06-27T11:07:54.019Z,97567.59
2018-06-27T11:11:20.154Z,97565.84
2018-06-27T11:12:56.621Z,97577.31
2018-06-27T11:14:35.565Z,97568.12
2018-06-27T11:16:11.954Z,97553.00
2018-06-27T11:17:49.274Z,97564.14
2018-06-27T11:19:28.577Z,97552.57
2018-06-27T11:21:07.220Z,97562.06
2018-06-27T11:22:44.633Z,97564.34
2018-06-27T11:24:21.464Z,97563.15
2018-06-27T11:26:00.573Z,97572.69
2018-06-27T11:27:37.865Z,97561.37
2018-06-27T11:29:14.209Z,97566.47
2018-06-27T11:30:50.597Z,97568.54
2018-06-27T11:32:26.302Z,97560.63
2018-06-27T11:34:03.523Z,97556.62
2018-06-27T11:35:40.226Z,97549.32
2018-06-27T11:37:15.470Z,97554.33
2018-06-27T11:38:51.535Z,97554.25
2018-06-27T11:40:31.517Z,97553.41
2018-06-27T11:42:08.288Z,97554.72
2018-06-27T11:43:46.145Z,97542.21
2018-06-27T11:45:23.670Z,97545.52
2018-06-27T11:47:01.496Z,97544.19
2018-06-27T11:48:38.063Z,97547.83
2018-06-27T11:50:16.278Z,97544.89
2018-06-27T11:51:52.728Z,97547.81
2018-06-27T11:53:30.765Z,97541.64
2018-06-27T11:55:14.133Z,97528.25
2018-06-27T11:56:51.324Z,97528.20
2018-06-27T11:58:30.132Z,97520.89
2018-06-27T12:00:14.005Z,97532.80
2018-06-27T12:01:55.151Z,97536.08
2018-06-27T12:03:31.621Z,97543.66
2018-06-27T12:05:09.676Z,97533.92
2018-06-27T12:06:47.537Z,97533.44
2018-06-27T12:08:24.787Z,97531.20
2018-06-27T12:53:19.665Z,97517.50
2018-06-27T12:56:54.307Z,97508.56
2018-06-27T12:58:32.370Z,97506.32
2018-06-27T13:00:14.256Z,97503.25
2018-06-27T13:01:50.594Z,97512.39
2018-06-27T13:03:27.769Z,97518.14
2018-06-27T13:05:05.112Z,97524.83
2018-06-27T13:06:43.485Z,97521.69
2018-06-27T13:08:20.991Z,97522.56
2018-06-27T13:09:57.888Z,97513.53
2018-06-27T13:11:36.360Z,97509.67
2018-06-27T13:13:15.319Z,97511.19
2018-06-27T13:14:51.388Z,97525.88
2018-06-27T13:16:28.734Z,97534.00
2018-06-27T13:18:07.066Z,97525.70
2018-06-27T14:00:59.009Z,97491.43
2018-06-27T14:02:35.410Z,97495.47
2018-06-27T14:04:11.949Z,97492.48
2018-06-27T14:05:49.247Z,97482.33
2018-06-27T14:07:26.208Z,97496.28
2018-06-27T14:09:02.744Z,97486.69
2018-06-27T14:10:38.576Z,97490.34
2018-06-27T14:12:19.184Z,97485.64
2018-06-27T14:13:55.065Z,97488.66
2018-06-27T14:15:33.753Z,97485.92
2018-06-27T14:17:10.317Z,97485.03
2018-06-27T14:18:46.213Z,97482.67
2018-06-27T14:20:23.603Z,97475.72
2018-06-27T14:22:00.866Z,97482.22
2018-06-27T14:23:35.955Z,97478.45
2018-06-27T14:25:16.968Z,97478.56
2018-06-27T14:26:54.242Z,97482.26
2018-06-27T14:28:31.953Z,97469.83
2018-06-27T14:30:19.701Z,97477.86
2018-06-27T14:31:55.508Z,97470.73
2018-06-27T14:33:34.561Z,97468.50
2018-06-27T14:35:10.843Z,97467.86
2018-06-27T14:36:46.522Z,97463.45
2018-06-27T14:38:22.553Z,97463.00
2018-06-27T14:39:59.134Z,97452.09
2018-06-27T14:41:34.805Z,97457.70
2018-06-27T14:43:10.275Z,97453.05
2018-06-27T14:44:46.045Z,97457.59
2018-06-27T14:46:22.506Z,97451.80
2018-06-27T14:47:58.511Z,97453.93
2018-06-27T14:49:33.685Z,97453.05
2018-06-27T14:51:09.376Z,97447.12
2018-06-27T14:52:44.542Z,97451.97
2018-06-27T14:54:25.076Z,97450.44
2018-06-27T14:56:01.303Z,97452.17
2018-06-27T14:57:42.645Z,97461.27
2018-06-27T14:59:18.414Z,97451.84
2018-06-27T15:00:56.536Z,97454.22
2018-06-27T15:02:38.749Z,97448.59
2018-06-27T15:04:17.537Z,97458.32
2018-06-27T15:05:56.068Z,97450.46
2018-06-27T15:07:37.697Z,97453.71
2018-06-27T15:09:14.423Z,97447.11
2018-06-27T15:10:49.862Z,97460.94
2018-06-27T15:12:28.291Z,97452.29
2018-06-27T15:14:05.006Z,97456.50
2018-06-27T15:15:45.232Z,97454.91
2018-06-27T15:17:21.809Z,97452.73
2018-06-27T15:19:00.040Z,97445.95
2018-06-27T15:20:35.537Z,97445.27
2018-06-27T15:22:13.458Z,97454.45
2018-06-27T15:23:51.599Z,97460.44
2018-06-27T15:25:27.925Z,97458.27
2018-06-27T15:27:08.958Z,97454.02
2018-06-27T15:28:45.319Z,97447.30
2018-06-27T15:30:20.974Z,97444.53
2018-06-27T15:31:57.593Z,97447.23
2018-06-27T15:33:55.833Z,97441.48
2018-06-27T15:35:32.549Z,97446.91
2018-06-27T15:37:09.805Z,97441.48
2018-06-27T15:38:49.739Z,97442.38
2018-06-27T15:40:27.475Z,97440.62
2018-06-27T15:42:06.078Z,97447.54
2018-06-27T15:43:43.025Z,97447.54
2018-06-27T15:45:23.391Z,97443.88
2018-06-27T15:47:01.487Z,97441.08
2018-06-27T15:48:41.402Z,97437.29
2018-06-27T15:50:18.486Z,97431.23
2018-06-27T15:51:57.951Z,97427.46
2018-06-27T15:55:24.675Z,97435.14
2018-06-27T15:57:01.315Z,97429.97
2018-06-27T15:58:38.925Z,97426.78
2018-06-27T16:00:17.877Z,97427.97
2018-06-27T16:01:53.796Z,97430.78
2018-06-27T16:03:32.615Z,97427.66
2018-06-27T16:05:08.516Z,97420.20
2018-06-27T16:06:45.461Z,97421.52
2018-06-27T16:08:21.724Z,97434.86
2018-06-27T16:09:59.896Z,97436.27
2018-06-27T16:11:39.130Z,97435.44
2018-06-27T16:13:15.523Z,97429.24
2018-06-27T16:14:52.088Z,97429.51
2018-06-27T16:16:31.719Z,97434.11
2018-06-27T16:18:12.604Z,97440.61
2018-06-27T16:19:48.809Z,97431.86
2018-06-27T16:21:29.305Z,97433.30
2018-06-27T16:23:07.274Z,97426.88
2018-06-27T16:24:44.769Z,97425.41
2018-06-27T16:26:22.371Z,97433.09
2018-06-27T16:28:03.216Z,97430.02
2018-06-27T16:29:39.728Z,97435.88
2018-06-27T16:31:15.042Z,97435.59
2018-06-27T16:32:50.360Z,97441.36
2018-06-27T16:34:25.785Z,97442.81
2018-06-27T16:36:03.195Z,97439.66
2018-06-27T16:37:39.557Z,97441.41
2018-06-27T16:39:15.710Z,97437.77
2018-06-27T16:40:56.068Z,97434.95
2018-06-27T16:42:32.093Z,97439.93
2018-06-27T16:44:09.507Z,97436.77
2018-06-27T16:45:45.037Z,97443.95
2018-06-27T16:47:21.685Z,97441.97
2018-06-27T16:48:58.492Z,97444.33
2018-06-27T16:50:33.922Z,97440.65
2018-06-27T16:52:12.550Z,97446.03
2018-06-27T16:53:48.094Z,97443.33
2018-06-27T16:55:25.347Z,97449.88
2018-06-27T16:57:01.656Z,97448.41
2018-06-27T16:58:37.952Z,97447.56
2018-06-27T17:00:15.833Z,97446.52
2018-06-27T17:01:52.845Z,97451.43
2018-06-27T17:03:28.681Z,97445.27
2018-06-27T17:05:06.370Z,97448.73
2018-06-27T17:06:44.692Z,97453.13
2018-06-27T17:08:22.018Z,97453.70
2018-06-27T17:09:59.769Z,97450.66
2018-06-27T17:11:37.689Z,97447.81
2018-06-27T17:13:14.330Z,97440.41
2018-06-27T17:14:52.227Z,97440.45
2018-06-27T17:16:31.514Z,97447.28
2018-06-27T17:18:13.821Z,97440.30
2018-06-27T17:19:55.990Z,97437.47
2018-06-27T17:21:33.334Z,97452.38
2018-06-27T17:23:15.966Z,97440.04
2018-06-27T17:24:51.877Z,97450.11
2018-06-27T17:26:28.973Z,97445.28
2018-06-27T17:28:08.973Z,97448.25
2018-06-27T17:29:46.026Z,97452.83
2018-06-27T17:31:25.147Z,97449.50
2018-06-27T17:33:08.100Z,97443.58
2018-06-27T17:34:50.564Z,97450.52
2018-06-27T17:36:30.596Z,97449.67
2018-06-27T17:38:12.530Z,97448.56
2018-06-27T17:39:54.113Z,97448.92
2018-06-27T17:41:35.721Z,97454.64
2018-06-27T17:43:14.092Z,97455.16
2018-06-27T17:44:51.804Z,97454.19
2018-06-27T17:46:39.783Z,97457.70
2018-06-27T17:48:20.106Z,97457.47
2018-06-27T17:50:01.945Z,97459.24
2018-06-27T17:53:43.716Z,97462.34
2018-06-27T17:55:22.735Z,97466.41
2018-06-27T17:57:09.536Z,97469.50
2018-06-27T17:58:58.047Z,97468.42
2018-06-27T18:00:34.952Z,97472.56
2018-06-27T18:02:16.363Z,97469.78
2018-06-27T18:04:00.527Z,97472.69
2018-06-27T18:05:37.671Z,97469.46
2018-06-27T18:07:18.592Z,97466.54
2018-06-27T18:08:57.974Z,97463.95
2018-06-27T18:10:38.845Z,97469.55
2018-06-27T18:12:18.107Z,97458.75
2018-06-27T18:14:01.653Z,97465.20
2018-06-27T18:15:45.606Z,97463.31
2018-06-27T18:17:29.540Z,97461.40
2018-06-27T18:19:16.119Z,97463.23
2018-06-27T18:20:59.390Z,97461.02
2018-06-27T18:22:38.690Z,97465.66
2018-06-27T18:24:21.144Z,97465.20
2018-06-27T18:26:05.688Z,97469.04
2018-06-27T18:27:42.759Z,97467.62
2018-06-27T18:29:23.311Z,97467.30
2018-06-27T18:30:59.701Z,97468.75
2018-06-27T18:32:40.649Z,97476.25
2018-06-27T18:34:20.250Z,97483.14
2018-06-27T18:35:58.086Z,97479.80
2018-06-27T18:37:34.784Z,97481.11
2018-06-27T18:39:12.856Z,97485.83
2018-06-27T18:40:51.359Z,97482.02
2018-06-27T18:42:32.460Z,97488.24
2018-06-27T18:44:11.989Z,97482.92
2018-06-27T18:45:51.508Z,97484.69
2018-06-27T18:47:31.230Z,97490.14
2018-06-27T18:49:09.945Z,97489.00
2018-06-27T18:50:46.748Z,97483.68
2018-06-27T18:52:25.876Z,97485.06
2018-06-27T18:54:04.124Z,97482.28
2018-06-27T18:55:52.433Z,97486.44
2018-06-27T18:57:30.094Z,97486.14
2018-06-27T19:01:10.696Z,97493.78
2018-06-27T19:02:55.101Z,97490.47
2018-06-27T19:04:39.787Z,97493.14
2018-06-27T19:06:33.047Z,97493.20
2018-06-27T19:08:10.672Z,97500.72
2018-06-27T19:09:53.282Z,97501.08
2018-06-27T19:11:32.573Z,97503.39
2018-06-27T19:15:14.813Z,97504.15
2018-06-27T19:18:43.128Z,97501.66
2018-06-27T19:20:30.425Z,97498.20
2018-06-27T19:22:18.425Z,97496.78
2018-06-27T19:25:14.354Z,97494.59
2018-06-27T19:26:57.459Z,97497.56
2018-06-27T19:28:38.413Z,97500.03
2018-06-27T19:30:26.764Z,97500.09
2018-06-27T19:32:05.547Z,97506.51
2018-06-27T19:33:52.152Z,97506.36
2018-06-27T19:35:35.405Z,97508.16
2018-06-27T19:37:17.071Z,97508.54
2018-06-27T19:38:57.524Z,97513.44
2018-06-27T19:40:41.273Z,97515.56
2018-06-27T19:42:26.144Z,97512.23
2018-06-27T19:44:04.386Z,97525.86
2018-06-27T19:45:43.376Z,97523.89
2018-06-27T19:47:24.491Z,97522.47
2018-06-27T19:49:07.904Z,97526.91
2018-06-27T19:50:55.462Z,97524.11
2018-06-27T19:53:04.958Z,97525.97
2018-06-27T19:55:45.406Z,97530.36
2018-06-27T19:57:24.675Z,97526.34
2018-06-27T19:59:05.336Z,97529.46
2018-06-27T20:00:42.469Z,97528.02
2018-06-27T20:02:19.428Z,97528.66
2018-06-27T20:03:58.754Z,97530.05
2018-06-27T20:07:33.921Z,97534.90
2018-06-27T20:09:11.172Z,97537.27
2018-06-27T20:10:51.409Z,97538.83
2018-06-27T20:12:30.354Z,97542.35
2018-06-27T20:14:19.553Z,97540.11
2018-06-27T20:15:58.925Z,97541.66
2018-06-27T20:17:57.886Z,97540.91
2018-06-27T20:19:38.690Z,97541.95
2018-06-27T20:21:17.914Z,97541.52
2018-06-27T20:22:55.782Z,97541.05
2018-06-27T20:24:33.751Z,97542.30
2018-06-27T20:26:21.288Z,97545.42
2018-06-27T20:27:58.563Z,97546.81
2018-06-27T20:29:35.865Z,97546.79
2018-06-27T20:31:19.753Z,97550.48
2018-06-27T20:32:58.255Z,97545.79
2018-06-27T20:34:36.740Z,97548.95
2018-06-27T20:36:15.997Z,97550.32
2018-06-27T20:38:00.766Z,97550.42
2018-06-27T20:39:50.568Z,97547.89
2018-06-27T20:41:33.387Z,97556.50
2018-06-27T20:43:12.034Z,97554.16
2018-06-27T20:44:51.272Z,97549.73
2018-06-27T20:46:28.396Z,97553.47
2018-06-27T20:48:06.211Z,97547.17
2018-06-27T20:49:48.521Z,97548.20
2018-06-27T20:51:31.272Z,97548.41
2018-06-27T20:53:08.221Z,97547.13